KSDM/SDM METAR and TAF weather

Enter ICAO airport designator
Station Type Date Time Source
KSDM METAR 2019/04/25 12:25 UTC NOAA

KSDM 251225Z AUTO 00000KT 3SM BR OVC002 14/13 A2997 RMK AO2 T01390133


Station Type Date Time Source
KSDM Decoded METAR 2019/04/25 12:25 UTC NOAA

San Diego, Brown Field Municipal Airport, CA, United States (KSDM) 32-34-31N 116-59-35W 159M
Apr 25, 2019 - 08:25 AM EDT / 2019.04.25 1225 UTC
Wind: Calm:0
Visibility: 3 mile(s):0
Sky conditions: overcast
Weather: mist
Temperature: 57.0 F (13.9 C)
Dew Point: 55.9 F (13.3 C)
Relative Humidity: 96%
Pressure (altimeter): 29.97 in. Hg (1014 hPa)
ob: KSDM 251225Z AUTO 00000KT 3SM BR OVC002 14/13 A2997 RMK AO2 T01390133
cycle: 12

Station Type Date Time Source
KSDM TAF UTC NOAA

Error!

Example: see airport list